函館空港の過去48時間の天気

函館空港 (Hakodate)

現在時刻: 10/23 15:31 JST (10/23 06:31 UTC) 以下の時間は現地時間です。

過去48時間のMETAR気象情報
時間 風向 風速(m/s) 視程 気温(℃) 湿度(%) 気圧(hPa) 天気現象
23 15:00 南南東 3 10km以上 18 73 1017
23 14:00 南南西 4 10km以上 18 73 1016
23 13:00 南南西 4 10km以上 18 73 1016
23 12:00 南西 5 10km以上 19 68 1016
23 11:42 南西 5 10km以上 18 68 1016
23 11:00 不定 2 10km以上 19 60 1017
23 10:00 不定 1 10km以上 17 77 1017
23 09:00 西北西 2 10km以上 17 77 1018
23 08:00 不定 1 10km以上 15 88 1017
23 07:00 不定 1 10km以上 13 100 1017
23 06:10 2 10km以上 13 94 1017
22 06:10 北東 3 10km以上 12 94 1020
21 20:00 北北東 3 10km以上 12 88 1021
21 19:00 北北東 2 10km以上 13 88 1021
21 18:00 北東 2 10km以上 13 88 1020
21 17:00 2 10km以上 14 88 1020
21 16:00 西南西 3 10km以上 17 72 1020
RJCH 230600Z 16006KT 9999 FEW030 SCT050 18/13 Q1017
RJCH 230500Z 21008KT 9999 FEW030 SCT045 18/13 Q1016
RJCH 230400Z 21008KT 9999 FEW025 SCT045 18/13 Q1016
RJCH 230300Z 23010KT 9999 FEW025 SCT035 19/13 Q1016
RJCH 230242Z 23010KT 9999 FEW020 SCT035 18/12 Q1016 RMK 1CU020 3CU035 A3003
RJCH 230200Z VRB04KT 9999 FEW020 SCT060 19/11 Q1017
RJCH 230100Z VRB02KT 9999 FEW025 BKN060 17/13 Q1017
RJCH 230000Z 30003KT 270V350 9999 FEW025 SCT050 BKN060 17/13 Q1018
RJCH 222300Z VRB02KT 9999 FEW020 SCT030 BKN050 15/13 Q1017
RJCH 222200Z VRB02KT 9999 FEW012 SCT035 BKN050 13/13 Q1017
RJCH 222110Z 36004KT 9999 FEW025 SCT035 BKN050 13/12 Q1017 RMK 1CU025 3CU035 5CU050 A3003
RJCH 212110Z 05006KT 9999 FEW020 SCT040 BKN/// 12/11 Q1020 RMK 1CU020 3CU040 A3013
RJCH 211100Z 02005KT 9999 FEW025 BKN/// 12/10 Q1021
RJCH 211000Z 03004KT 9999 FEW025 BKN/// 13/11 Q1021
RJCH 210900Z 04004KT 9999 FEW025 BKN/// 13/11 Q1020
RJCH 210800Z 01003KT 290V040 9999 FEW030 BKN/// 14/12 Q1020
RJCH 210700Z 24005KT 9999 FEW030 BKN/// 17/12 Q1020